logo
Search for airport 
image banner adimage banner adimage banner ad
image banner ad

LGPAXO - Paxoi

Located in Gaios, Greece

ICAO - , IATA -

Data provided by Airmate  

General information

Coordinates: N39°12'16" E20°11'3"
Elevation is 200 feet MSL.
Magnetic variation is 4° East
View others Airports in Ioannina

Operational data

Special qualification required
Current time UTC:
Current local time:
METAR: LGKR 152150Z 00000KT 9999 FEW025 17/14 Q1016 NOSIG
TAF: TAF LGKR 151700Z 1518/1618 VRB05KT 9999 FEW020 PROB30 1600/1606 4000 BR SCT006 BECMG 1607/1609 16010KT FEW018 BKN080 PROB30 TEMPO 1612/1618 RA FEW016TCU BKN020 BKN070
View NOTAMs / SUP AIP / TFR affecting this airport [VIEW]
Communications frequencies: [VIEW]

Runways:

Airport contact information

Address: Gaios Greece

Satellite view of LGPAXO